sensor_id;sensor_type;location;lat;lon;timestamp;pressure;altitude;pressure_sealevel;temperature;humidity
82555;BME280;72219;48.186;11.554;2024-01-25T00:00:18;96723.91;;;16.52;42.41
82555;BME280;72219;48.186;11.554;2024-01-25T00:02:43;96726.53;;;16.52;42.29
82555;BME280;72219;48.186;11.554;2024-01-25T00:05:09;96717.34;;;16.47;42.53
82555;BME280;72219;48.186;11.554;2024-01-25T00:07:34;96710.63;;;16.45;41.90
82555;BME280;72219;48.186;11.554;2024-01-25T00:09:59;96717.66;;;16.44;42.44
82555;BME280;72219;48.186;11.554;2024-01-25T00:12:26;96719.53;;;16.52;42.35
82555;BME280;72219;48.186;11.554;2024-01-25T00:14:51;96716.84;;;16.44;42.43
82555;BME280;72219;48.186;11.554;2024-01-25T00:17:18;96703.69;;;16.36;42.30
82555;BME280;72219;48.186;11.554;2024-01-25T00:19:44;96714.25;;;16.44;42.23
82555;BME280;72219;48.186;11.554;2024-01-25T00:22:09;96713.41;;;16.43;42.28
82555;BME280;72219;48.186;11.554;2024-01-25T00:24:35;96704.53;;;16.36;42.09
82555;BME280;72219;48.186;11.554;2024-01-25T00:27:01;96728.75;;;16.46;41.81
82555;BME280;72219;48.186;11.554;2024-01-25T00:29:30;96735.56;;;16.39;42.63
82555;BME280;72219;48.186;11.554;2024-01-25T00:31:57;96719.75;;;16.41;42.49
82555;BME280;72219;48.186;11.554;2024-01-25T00:34:23;96721.56;;;16.40;42.31
82555;BME280;72219;48.186;11.554;2024-01-25T00:36:50;96698.78;;;16.33;42.05
82555;BME280;72219;48.186;11.554;2024-01-25T00:39:17;96712.44;;;16.44;42.14
82555;BME280;72219;48.186;11.554;2024-01-25T00:41:44;96723.13;;;16.33;42.55
82555;BME280;72219;48.186;11.554;2024-01-25T00:44:12;96716.97;;;16.42;42.09
82555;BME280;72219;48.186;11.554;2024-01-25T00:46:39;96720.88;;;16.38;42.35
82555;BME280;72219;48.186;11.554;2024-01-25T00:49:05;96712.53;;;16.35;42.53
82555;BME280;72219;48.186;11.554;2024-01-25T00:51:30;96702.47;;;16.40;42.21
82555;BME280;72219;48.186;11.554;2024-01-25T00:53:56;96704.75;;;16.43;42.08
82555;BME280;72219;48.186;11.554;2024-01-25T00:56:23;96706.03;;;16.39;42.43
82555;BME280;72219;48.186;11.554;2024-01-25T00:58:48;96707.97;;;16.37;42.31
82555;BME280;72219;48.186;11.554;2024-01-25T01:01:14;96720.88;;;16.38;42.58
82555;BME280;72219;48.186;11.554;2024-01-25T01:03:39;96719.25;;;16.37;41.93
82555;BME280;72219;48.186;11.554;2024-01-25T01:06:05;96720.59;;;16.41;41.75
82555;BME280;72219;48.186;11.554;2024-01-25T01:08:31;96724.47;;;16.37;42.08
82555;BME280;72219;48.186;11.554;2024-01-25T01:10:57;96739.69;;;16.42;42.17
82555;BME280;72219;48.186;11.554;2024-01-25T01:13:23;96739.78;;;16.32;42.58
82555;BME280;72219;48.186;11.554;2024-01-25T01:15:48;96754.16;;;16.36;42.09
82555;BME280;72219;48.186;11.554;2024-01-25T01:18:13;96751.88;;;16.33;42.03
82555;BME280;72219;48.186;11.554;2024-01-25T01:20:39;96757.97;;;16.42;42.53
82555;BME280;72219;48.186;11.554;2024-01-25T01:23:04;96760.34;;;16.35;42.37
82555;BME280;72219;48.186;11.554;2024-01-25T01:25:29;96745.88;;;16.41;42.26
82555;BME280;72219;48.186;11.554;2024-01-25T01:27:55;96759.91;;;16.40;41.91
82555;BME280;72219;48.186;11.554;2024-01-25T01:30:21;96754.00;;;16.38;42.28
82555;BME280;72219;48.186;11.554;2024-01-25T01:32:47;96753.47;;;16.34;42.20
82555;BME280;72219;48.186;11.554;2024-01-25T01:35:12;96754.16;;;16.36;42.39
82555;BME280;72219;48.186;11.554;2024-01-25T01:37:37;96757.31;;;16.40;42.00
82555;BME280;72219;48.186;11.554;2024-01-25T01:40:05;96739.16;;;16.38;42.43
82555;BME280;72219;48.186;11.554;2024-01-25T01:42:31;96735.66;;;16.29;42.05
82555;BME280;72219;48.186;11.554;2024-01-25T01:44:56;96754.69;;;16.40;42.42
82555;BME280;72219;48.186;11.554;2024-01-25T01:47:22;96758.94;;;16.41;42.54
82555;BME280;72219;48.186;11.554;2024-01-25T01:49:48;96753.06;;;16.39;42.16
82555;BME280;72219;48.186;11.554;2024-01-25T01:52:13;96751.72;;;16.35;42.23
82555;BME280;72219;48.186;11.554;2024-01-25T01:54:41;96741.75;;;16.38;42.31
82555;BME280;72219;48.186;11.554;2024-01-25T01:57:07;96759.91;;;16.40;41.67
82555;BME280;72219;48.186;11.554;2024-01-25T01:59:33;96750.59;;;16.37;42.33
82555;BME280;72219;48.186;11.554;2024-01-25T02:01:58;96739.09;;;16.30;42.23
82555;BME280;72219;48.186;11.554;2024-01-25T02:04:24;96747.16;;;16.37;42.15
82555;BME280;72219;48.186;11.554;2024-01-25T02:06:51;96739.03;;;16.40;41.95
82555;BME280;72219;48.186;11.554;2024-01-25T02:09:16;96738.03;;;16.41;41.93
82555;BME280;72219;48.186;11.554;2024-01-25T02:11:42;96743.09;;;16.42;42.17
82555;BME280;72219;48.186;11.554;2024-01-25T02:14:10;96735.72;;;16.38;42.30
82555;BME280;72219;48.186;11.554;2024-01-25T02:16:37;96731.78;;;16.34;42.64
82555;BME280;72219;48.186;11.554;2024-01-25T02:19:03;96719.63;;;16.24;42.08
82555;BME280;72219;48.186;11.554;2024-01-25T02:21:28;96729.31;;;16.32;42.29
82555;BME280;72219;48.186;11.554;2024-01-25T02:23:53;96734.91;;;16.37;42.19
82555;BME280;72219;48.186;11.554;2024-01-25T02:26:19;96716.53;;;16.29;42.21
82555;BME280;72219;48.186;11.554;2024-01-25T02:28:44;96727.75;;;16.39;42.02
82555;BME280;72219;48.186;11.554;2024-01-25T02:31:09;96736.19;;;16.33;42.41
82555;BME280;72219;48.186;11.554;2024-01-25T02:33:36;96735.19;;;16.34;42.23
82555;BME280;72219;48.186;11.554;2024-01-25T02:36:03;96736.84;;;16.35;42.36
82555;BME280;72219;48.186;11.554;2024-01-25T02:38:28;96730.13;;;16.33;42.17
82555;BME280;72219;48.186;11.554;2024-01-25T02:40:54;96715.06;;;16.26;41.94
82555;BME280;72219;48.186;11.554;2024-01-25T02:43:19;96725.38;;;16.28;42.44
82555;BME280;72219;48.186;11.554;2024-01-25T02:45:45;96719.53;;;16.34;42.21
82555;BME280;72219;48.186;11.554;2024-01-25T02:48:10;96722.97;;;16.35;42.13
82555;BME280;72219;48.186;11.554;2024-01-25T02:50:35;96725.59;;;16.35;42.19
82555;BME280;72219;48.186;11.554;2024-01-25T02:53:02;96728.47;;;16.31;42.47
82555;BME280;72219;48.186;11.554;2024-01-25T02:55:27;96727.44;;;16.24;42.57
82555;BME280;72219;48.186;11.554;2024-01-25T02:57:54;96730.28;;;16.31;42.31
82555;BME280;72219;48.186;11.554;2024-01-25T03:00:19;96732.09;;;16.30;42.47
82555;BME280;72219;48.186;11.554;2024-01-25T03:02:44;96722.91;;;16.26;42.19
82555;BME280;72219;48.186;11.554;2024-01-25T03:05:10;96717.47;;;16.20;42.36
82555;BME280;72219;48.186;11.554;2024-01-25T03:07:37;96723.72;;;16.27;42.49
82555;BME280;72219;48.186;11.554;2024-01-25T03:10:02;96716.03;;;16.25;42.43
82555;BME280;72219;48.186;11.554;2024-01-25T03:12:30;96722.91;;;16.26;42.48
82555;BME280;72219;48.186;11.554;2024-01-25T03:14:55;96720.81;;;16.30;42.40
82555;BME280;72219;48.186;11.554;2024-01-25T03:17:21;96707.59;;;16.31;42.35
82555;BME280;72219;48.186;11.554;2024-01-25T03:19:46;96704.53;;;16.36;42.39
82555;BME280;72219;48.186;11.554;2024-01-25T03:22:12;96692.59;;;16.34;42.18
82555;BME280;72219;48.186;11.554;2024-01-25T03:24:42;96685.72;;;16.33;42.14
82555;BME280;72219;48.186;11.554;2024-01-25T03:27:07;96685.88;;;16.31;42.36
82555;BME280;72219;48.186;11.554;2024-01-25T03:29:41;96690.88;;;16.24;42.57
82555;BME280;72219;48.186;11.554;2024-01-25T03:32:06;96686.34;;;16.26;42.19
82555;BME280;72219;48.186;11.554;2024-01-25T03:34:32;96675.06;;;16.26;42.30
82555;BME280;72219;48.186;11.554;2024-01-25T03:37:00;96695.53;;;16.30;42.26
82555;BME280;72219;48.186;11.554;2024-01-25T03:39:25;96698.41;;;16.27;42.62
82555;BME280;72219;48.186;11.554;2024-01-25T03:41:50;96701.88;;;16.28;42.29
82555;BME280;72219;48.186;11.554;2024-01-25T03:44:15;96694.03;;;16.28;42.37
82555;BME280;72219;48.186;11.554;2024-01-25T03:46:41;96703.47;;;16.29;42.24
82555;BME280;72219;48.186;11.554;2024-01-25T03:49:06;96700.69;;;16.22;42.59
82555;BME280;72219;48.186;11.554;2024-01-25T03:51:32;96688.28;;;16.24;42.47
82555;BME280;72219;48.186;11.554;2024-01-25T03:53:59;96687.03;;;16.10;42.24
82555;BME280;72219;48.186;11.554;2024-01-25T03:56:25;96707.25;;;16.26;42.07
82555;BME280;72219;48.186;11.554;2024-01-25T03:58:52;96694.31;;;16.25;42.06
82555;BME280;72219;48.186;11.554;2024-01-25T04:01:17;96705.59;;;16.25;42.05
82555;BME280;72219;48.186;11.554;2024-01-25T04:03:43;96699.03;;;16.21;42.22
82555;BME280;72219;48.186;11.554;2024-01-25T04:06:10;96711.78;;;16.24;42.54
82555;BME280;72219;48.186;11.554;2024-01-25T04:08:38;96693.75;;;16.13;42.15
82555;BME280;72219;48.186;11.554;2024-01-25T04:11:03;96719.09;;;16.21;42.58
82555;BME280;72219;48.186;11.554;2024-01-25T04:13:29;96702.09;;;16.17;42.15
82555;BME280;72219;48.186;11.554;2024-01-25T04:15:54;96715.97;;;16.17;42.22
82555;BME280;72219;48.186;11.554;2024-01-25T04:18:19;96719.63;;;16.24;42.65
82555;BME280;72219;48.186;11.554;2024-01-25T04:20:45;96730.75;;;16.26;42.38
82555;BME280;72219;48.186;11.554;2024-01-25T04:23:12;96731.88;;;16.24;42.13
82555;BME280;72219;48.186;11.554;2024-01-25T04:25:37;96732.53;;;16.26;42.37
82555;BME280;72219;48.186;11.554;2024-01-25T04:28:03;96725.16;;;16.21;42.25
82555;BME280;72219;48.186;11.554;2024-01-25T04:30:30;96733.94;;;16.20;42.11
82555;BME280;72219;48.186;11.554;2024-01-25T04:32:57;96748.50;;;16.23;42.23
82555;BME280;72219;48.186;11.554;2024-01-25T04:35:23;96751.75;;;16.25;42.33
82555;BME280;72219;48.186;11.554;2024-01-25T04:37:48;96738.63;;;16.17;42.29
82555;BME280;72219;48.186;11.554;2024-01-25T04:40:13;96743.44;;;16.21;42.73
82555;BME280;72219;48.186;11.554;2024-01-25T04:42:39;96750.66;;;16.27;42.34
82555;BME280;72219;48.186;11.554;2024-01-25T04:45:07;96742.59;;;16.21;42.43
82555;BME280;72219;48.186;11.554;2024-01-25T04:47:33;96750.31;;;16.22;42.53
82555;BME280;72219;48.186;11.554;2024-01-25T04:49:59;96744.97;;;16.14;42.24
82555;BME280;72219;48.186;11.554;2024-01-25T04:52:25;96746.31;;;16.18;42.36
82555;BME280;72219;48.186;11.554;2024-01-25T04:54:50;96761.31;;;16.16;42.37
82555;BME280;72219;48.186;11.554;2024-01-25T04:57:15;96753.19;;;16.19;42.45
82555;BME280;72219;48.186;11.554;2024-01-25T04:59:40;96766.41;;;16.18;42.56
82555;BME280;72219;48.186;11.554;2024-01-25T05:02:06;96761.41;;;16.24;42.25
82555;BME280;72219;48.186;11.554;2024-01-25T05:04:31;96755.72;;;16.11;42.25
82555;BME280;72219;48.186;11.554;2024-01-25T05:06:57;96766.94;;;16.21;42.49
82555;BME280;72219;48.186;11.554;2024-01-25T05:09:23;96767.75;;;16.22;42.10
82555;BME280;72219;48.186;11.554;2024-01-25T05:11:50;96763.34;;;16.22;42.13
82555;BME280;72219;48.186;11.554;2024-01-25T05:14:16;96779.03;;;16.22;42.44
82555;BME280;72219;48.186;11.554;2024-01-25T05:16:42;96764.41;;;16.11;42.59
82555;BME280;72219;48.186;11.554;2024-01-25T05:19:07;96777.16;;;16.14;42.51
82555;BME280;72219;48.186;11.554;2024-01-25T05:21:32;96779.06;;;16.12;42.71
82555;BME280;72219;48.186;11.554;2024-01-25T05:23:58;96783.63;;;16.10;42.72
82555;BME280;72219;48.186;11.554;2024-01-25T05:26:24;96785.28;;;16.11;42.57
82555;BME280;72219;48.186;11.554;2024-01-25T05:28:50;96791.69;;;16.17;42.60
82555;BME280;72219;48.186;11.554;2024-01-25T05:31:15;96796.69;;;16.10;42.71
82555;BME280;72219;48.186;11.554;2024-01-25T05:33:42;96796.78;;;16.19;42.08
82555;BME280;72219;48.186;11.554;2024-01-25T05:36:08;96797.88;;;16.16;42.67
82555;BME280;72219;48.186;11.554;2024-01-25T05:38:33;96799.81;;;16.14;42.71
82555;BME280;72219;48.186;11.554;2024-01-25T05:41:00;96796.38;;;16.13;42.38
82555;BME280;72219;48.186;11.554;2024-01-25T05:43:25;96804.53;;;16.10;42.32
82555;BME280;72219;48.186;11.554;2024-01-25T05:45:51;96809.69;;;16.20;42.21
82555;BME280;72219;48.186;11.554;2024-01-25T05:48:16;96814.34;;;16.17;42.40
82555;BME280;72219;48.186;11.554;2024-01-25T05:50:44;96819.34;;;16.10;42.78
82555;BME280;72219;48.186;11.554;2024-01-25T05:53:13;96821.84;;;16.11;42.46
82555;BME280;72219;48.186;11.554;2024-01-25T05:55:41;96812.34;;;16.10;42.10
82555;BME280;72219;48.186;11.554;2024-01-25T05:58:07;96808.91;;;16.10;42.35
82555;BME280;72219;48.186;11.554;2024-01-25T06:00:33;96813.84;;;16.13;42.31
82555;BME280;72219;48.186;11.554;2024-01-25T06:03:00;96825.41;;;16.10;42.31
82555;BME280;72219;48.186;11.554;2024-01-25T06:05:27;96815.94;;;16.09;42.74
82555;BME280;72219;48.186;11.554;2024-01-25T06:07:52;96825.56;;;16.09;42.37
82555;BME280;72219;48.186;11.554;2024-01-25T06:10:17;96840.13;;;16.11;42.20
82555;BME280;72219;48.186;11.554;2024-01-25T06:12:43;96837.63;;;16.10;42.51
82555;BME280;72219;48.186;11.554;2024-01-25T06:15:08;96843.22;;;16.15;42.49
82555;BME280;72219;48.186;11.554;2024-01-25T06:17:34;96835.69;;;16.12;42.33
82555;BME280;72219;48.186;11.554;2024-01-25T06:19:59;96844.78;;;16.08;42.65
82555;BME280;72219;48.186;11.554;2024-01-25T06:22:25;96852.94;;;16.05;42.53
82555;BME280;72219;48.186;11.554;2024-01-25T06:24:51;96868.00;;;16.11;42.00
82555;BME280;72219;48.186;11.554;2024-01-25T06:27:19;96877.09;;;16.07;42.48
82555;BME280;72219;48.186;11.554;2024-01-25T06:29:45;96884.63;;;16.10;42.71
82555;BME280;72219;48.186;11.554;2024-01-25T06:32:11;96879.41;;;16.10;42.44
82555;BME280;72219;48.186;11.554;2024-01-25T06:34:36;96883.69;;;16.29;42.28
82555;BME280;72219;48.186;11.554;2024-01-25T06:37:02;96891.78;;;17.00;41.03
82555;BME280;72219;48.186;11.554;2024-01-25T06:39:27;96879.97;;;17.92;38.98
82555;BME280;72219;48.186;11.554;2024-01-25T06:41:52;96876.03;;;18.39;37.85
82555;BME280;72219;48.186;11.554;2024-01-25T06:44:18;96878.91;;;18.71;37.40
82555;BME280;72219;48.186;11.554;2024-01-25T06:46:44;96881.56;;;19.04;36.97
82555;BME280;72219;48.186;11.554;2024-01-25T06:49:10;96884.16;;;19.37;36.34
82555;BME280;72219;48.186;11.554;2024-01-25T06:51:35;96899.25;;;19.51;36.12
82555;BME280;72219;48.186;11.554;2024-01-25T06:54:01;96892.66;;;19.63;35.66
82555;BME280;72219;48.186;11.554;2024-01-25T06:56:26;96905.44;;;19.91;35.54
82555;BME280;72219;48.186;11.554;2024-01-25T06:58:51;96913.75;;;20.11;35.37
82555;BME280;72219;48.186;11.554;2024-01-25T07:01:23;96919.13;;;20.18;35.31
82555;BME280;72219;48.186;11.554;2024-01-25T07:03:49;96920.66;;;20.44;35.02
82555;BME280;72219;48.186;11.554;2024-01-25T07:06:17;96925.25;;;20.81;34.36
82555;BME280;72219;48.186;11.554;2024-01-25T07:08:43;96934.38;;;21.17;33.84
82555;BME280;72219;48.186;11.554;2024-01-25T07:11:10;96921.91;;;21.34;33.63
82555;BME280;72219;48.186;11.554;2024-01-25T07:13:36;96926.22;;;21.50;33.22
82555;BME280;72219;48.186;11.554;2024-01-25T07:16:01;96931.66;;;21.72;33.18
82555;BME280;72219;48.186;11.554;2024-01-25T07:18:26;96931.66;;;21.87;33.01
82555;BME280;72219;48.186;11.554;2024-01-25T07:20:51;96923.66;;;21.95;32.78
82555;BME280;72219;48.186;11.554;2024-01-25T07:23:17;96931.28;;;22.05;32.85
82555;BME280;72219;48.186;11.554;2024-01-25T07:25:43;96935.56;;;22.21;33.60
82555;BME280;72219;48.186;11.554;2024-01-25T07:28:09;96937.53;;;22.33;34.19
82555;BME280;72219;48.186;11.554;2024-01-25T07:30:34;96948.00;;;22.57;34.44
82555;BME280;72219;48.186;11.554;2024-01-25T07:33:00;96945.69;;;22.68;34.61
82555;BME280;72219;48.186;11.554;2024-01-25T07:35:27;96951.41;;;22.72;34.90
82555;BME280;72219;48.186;11.554;2024-01-25T07:37:53;96958.53;;;22.72;34.73
82555;BME280;72219;48.186;11.554;2024-01-25T07:40:18;96962.84;;;22.79;35.31
82555;BME280;72219;48.186;11.554;2024-01-25T07:42:43;96955.13;;;22.78;35.14
82555;BME280;72219;48.186;11.554;2024-01-25T07:45:09;96967.31;;;22.79;35.40
82555;BME280;72219;48.186;11.554;2024-01-25T07:47:35;96965.88;;;22.76;35.45
82555;BME280;72219;48.186;11.554;2024-01-25T07:50:00;96973.34;;;22.73;35.50
82555;BME280;72219;48.186;11.554;2024-01-25T07:52:26;96967.69;;;22.76;35.68
82555;BME280;72219;48.186;11.554;2024-01-25T07:54:51;96975.16;;;22.72;35.90
82555;BME280;72219;48.186;11.554;2024-01-25T07:57:19;96979.78;;;22.70;35.96
82555;BME280;72219;48.186;11.554;2024-01-25T07:59:44;96969.81;;;22.65;35.97
82555;BME280;72219;48.186;11.554;2024-01-25T08:02:10;96975.56;;;22.54;36.32
82555;BME280;72219;48.186;11.554;2024-01-25T08:04:35;96971.38;;;22.45;36.26
82555;BME280;72219;48.186;11.554;2024-01-25T08:07:01;96977.38;;;22.39;36.65
82555;BME280;72219;48.186;11.554;2024-01-25T08:09:26;96965.81;;;22.25;36.57
82555;BME280;72219;48.186;11.554;2024-01-25T08:11:51;96968.38;;;22.18;36.82
82555;BME280;72219;48.186;11.554;2024-01-25T08:14:17;96973.63;;;22.03;35.99
82555;BME280;72219;48.186;11.554;2024-01-25T08:16:42;96975.69;;;21.78;35.24
82555;BME280;72219;48.186;11.554;2024-01-25T08:19:09;96979.19;;;21.55;34.38
82555;BME280;72219;48.186;11.554;2024-01-25T08:21:34;96953.84;;;21.31;33.64
82555;BME280;72219;48.186;11.554;2024-01-25T08:24:01;96951.72;;;21.49;33.34
82555;BME280;72219;48.186;11.554;2024-01-25T08:26:26;96958.16;;;21.47;33.40
82555;BME280;72219;48.186;11.554;2024-01-25T08:28:53;96961.25;;;21.50;34.20
82555;BME280;72219;48.186;11.554;2024-01-25T08:31:18;96967.88;;;21.70;34.07
82555;BME280;72219;48.186;11.554;2024-01-25T08:33:43;96961.25;;;21.89;33.83
82555;BME280;72219;48.186;11.554;2024-01-25T08:36:13;96953.03;;;22.07;33.66
82555;BME280;72219;48.186;11.554;2024-01-25T08:38:38;96960.28;;;22.34;33.71
82555;BME280;72219;48.186;11.554;2024-01-25T08:41:03;96974.53;;;22.55;33.38
82555;BME280;72219;48.186;11.554;2024-01-25T08:43:29;96987.47;;;22.65;33.24
82555;BME280;72219;48.186;11.554;2024-01-25T08:45:56;96987.97;;;22.75;33.27
82555;BME280;72219;48.186;11.554;2024-01-25T08:48:22;96991.06;;;22.79;33.20
82555;BME280;72219;48.186;11.554;2024-01-25T08:50:47;96993.34;;;22.82;33.23
82555;BME280;72219;48.186;11.554;2024-01-25T08:53:18;96995.97;;;22.82;33.40
82555;BME280;72219;48.186;11.554;2024-01-25T08:55:44;96996.72;;;22.76;33.46
82555;BME280;72219;48.186;11.554;2024-01-25T08:58:12;96996.19;;;22.65;33.85
82555;BME280;72219;48.186;11.554;2024-01-25T09:00:37;96999.75;;;22.58;34.16
82555;BME280;72219;48.186;11.554;2024-01-25T09:03:03;96993.09;;;22.47;34.46
82555;BME280;72219;48.186;11.554;2024-01-25T09:05:28;96987.41;;;22.43;34.68
82555;BME280;72219;48.186;11.554;2024-01-25T09:07:54;96998.47;;;22.54;34.77
82555;BME280;72219;48.186;11.554;2024-01-25T09:10:19;97000.75;;;22.57;34.61
82555;BME280;72219;48.186;11.554;2024-01-25T09:12:45;97003.84;;;22.60;35.00
82555;BME280;72219;48.186;11.554;2024-01-25T09:15:11;97008.66;;;22.72;34.41
82555;BME280;72219;48.186;11.554;2024-01-25T09:17:37;97018.47;;;22.78;34.64
82555;BME280;72219;48.186;11.554;2024-01-25T09:20:02;97016.50;;;22.65;34.80
82555;BME280;72219;48.186;11.554;2024-01-25T09:22:29;97018.28;;;22.64;34.99
82555;BME280;72219;48.186;11.554;2024-01-25T09:24:56;97019.94;;;22.65;35.04
82555;BME280;72219;48.186;11.554;2024-01-25T09:27:22;97026.75;;;22.75;34.89
82555;BME280;72219;48.186;11.554;2024-01-25T09:29:47;97034.38;;;22.84;34.72
82555;BME280;72219;48.186;11.554;2024-01-25T09:32:17;97027.75;;;22.74;34.81
82555;BME280;72219;48.186;11.554;2024-01-25T09:34:42;97044.03;;;22.77;35.05
82555;BME280;72219;48.186;11.554;2024-01-25T09:37:07;97034.00;;;22.73;35.03
82555;BME280;72219;48.186;11.554;2024-01-25T09:39:33;97048.13;;;22.80;35.12
82555;BME280;72219;48.186;11.554;2024-01-25T09:41:58;97036.66;;;22.73;35.35
82555;BME280;72219;48.186;11.554;2024-01-25T09:44:23;97043.19;;;22.77;35.73
82555;BME280;72219;48.186;11.554;2024-01-25T09:46:52;97041.78;;;22.74;35.37
82555;BME280;72219;48.186;11.554;2024-01-25T09:49:17;97042.47;;;22.83;35.22
82555;BME280;72219;48.186;11.554;2024-01-25T09:51:44;97032.19;;;22.88;35.15
82555;BME280;72219;48.186;11.554;2024-01-25T09:54:10;97028.66;;;22.81;35.05
82555;BME280;72219;48.186;11.554;2024-01-25T09:56:35;97043.06;;;22.63;35.54
82555;BME280;72219;48.186;11.554;2024-01-25T09:59:03;97043.38;;;22.30;35.96
82555;BME280;72219;48.186;11.554;2024-01-25T10:01:30;97040.81;;;22.22;36.01
82555;BME280;72219;48.186;11.554;2024-01-25T10:03:55;97041.63;;;22.08;36.01
82555;BME280;72219;48.186;11.554;2024-01-25T10:06:22;97053.44;;;22.12;36.28
82555;BME280;72219;48.186;11.554;2024-01-25T10:08:47;97055.28;;;22.26;36.16
82555;BME280;72219;48.186;11.554;2024-01-25T10:11:13;97059.50;;;22.36;36.08
82555;BME280;72219;48.186;11.554;2024-01-25T10:13:46;97049.53;;;22.46;35.60
82555;BME280;72219;48.186;11.554;2024-01-25T10:16:13;97065.94;;;22.78;35.36
82555;BME280;72219;48.186;11.554;2024-01-25T10:18:44;97054.72;;;23.06;34.81
82555;BME280;72219;48.186;11.554;2024-01-25T10:21:10;97049.25;;;23.22;34.43
82555;BME280;72219;48.186;11.554;2024-01-25T10:23:36;97054.41;;;23.30;34.22
82555;BME280;72219;48.186;11.554;2024-01-25T10:26:02;97049.47;;;23.42;34.02
82555;BME280;72219;48.186;11.554;2024-01-25T10:28:27;97032.22;;;23.46;33.79
82555;BME280;72219;48.186;11.554;2024-01-25T10:31:02;97032.53;;;23.37;33.72
82555;BME280;72219;48.186;11.554;2024-01-25T10:33:29;97017.88;;;23.34;34.16
82555;BME280;72219;48.186;11.554;2024-01-25T10:35:56;97024.97;;;23.33;34.04
82555;BME280;72219;48.186;11.554;2024-01-25T10:38:29;97018.28;;;23.31;34.18
82555;BME280;72219;48.186;11.554;2024-01-25T10:40:56;97024.75;;;23.28;34.18
82555;BME280;72219;48.186;11.554;2024-01-25T10:43:23;97006.00;;;23.23;34.28
82555;BME280;72219;48.186;11.554;2024-01-25T10:45:48;97008.00;;;23.21;34.07
82555;BME280;72219;48.186;11.554;2024-01-25T10:48:17;97016.09;;;23.20;34.28
82555;BME280;72219;48.186;11.554;2024-01-25T10:50:42;97009.91;;;23.12;34.35
82555;BME280;72219;48.186;11.554;2024-01-25T10:53:10;97017.09;;;23.18;33.93
82555;BME280;72219;48.186;11.554;2024-01-25T10:55:36;97018.09;;;23.32;34.14
82555;BME280;72219;48.186;11.554;2024-01-25T10:58:02;97009.19;;;23.40;33.97
82555;BME280;72219;48.186;11.554;2024-01-25T11:00:31;97004.28;;;23.37;33.82
82555;BME280;72219;48.186;11.554;2024-01-25T11:02:56;96999.59;;;23.32;34.18
82555;BME280;72219;48.186;11.554;2024-01-25T11:05:23;96994.00;;;23.42;33.90
82555;BME280;72219;48.186;11.554;2024-01-25T11:07:50;96996.13;;;23.32;34.10
82555;BME280;72219;48.186;11.554;2024-01-25T11:10:24;96980.91;;;23.34;33.91
82555;BME280;72219;48.186;11.554;2024-01-25T11:12:56;96983.28;;;23.29;34.08
82555;BME280;72219;48.186;11.554;2024-01-25T11:15:29;96969.44;;;23.27;33.92
82555;BME280;72219;48.186;11.554;2024-01-25T11:17:55;96964.69;;;23.37;33.98
82555;BME280;72219;48.186;11.554;2024-01-25T11:20:25;96968.50;;;23.34;33.95
82555;BME280;72219;48.186;11.554;2024-01-25T11:23:02;96970.47;;;23.47;33.41
82555;BME280;72219;48.186;11.554;2024-01-25T11:25:32;96961.84;;;23.39;33.16
82555;BME280;72219;48.186;11.554;2024-01-25T11:27:58;96969.16;;;23.37;33.78
82555;BME280;72219;48.186;11.554;2024-01-25T11:30:25;96963.75;;;23.23;33.72
82555;BME280;72219;48.186;11.554;2024-01-25T11:32:51;96970.34;;;23.34;33.63
82555;BME280;72219;48.186;11.554;2024-01-25T11:35:17;96948.72;;;23.24;33.20
82555;BME280;72219;48.186;11.554;2024-01-25T11:37:46;96951.88;;;23.34;33.46
82555;BME280;72219;48.186;11.554;2024-01-25T11:40:15;96948.38;;;23.33;33.59
82555;BME280;72219;48.186;11.554;2024-01-25T11:42:47;96945.25;;;23.23;33.70
82555;BME280;72219;48.186;11.554;2024-01-25T11:45:13;96937.81;;;23.33;33.69
82555;BME280;72219;48.186;11.554;2024-01-25T11:47:41;96935.31;;;23.25;33.27
82555;BME280;72219;48.186;11.554;2024-01-25T11:50:08;96931.78;;;22.96;34.02
82555;BME280;72219;48.186;11.554;2024-01-25T11:52:34;96924.25;;;22.93;33.62
82555;BME280;72219;48.186;11.554;2024-01-25T11:55:08;96936.06;;;22.97;33.30
82555;BME280;72219;48.186;11.554;2024-01-25T11:57:37;96918.59;;;22.96;33.92
82555;BME280;72219;48.186;11.554;2024-01-25T12:00:04;96909.84;;;22.96;33.77
82555;BME280;72219;48.186;11.554;2024-01-25T12:02:31;96928.16;;;23.19;33.54
82555;BME280;72219;48.186;11.554;2024-01-25T12:04:57;96925.53;;;23.19;33.03
82555;BME280;72219;48.186;11.554;2024-01-25T12:07:22;96918.66;;;23.25;33.75
82555;BME280;72219;48.186;11.554;2024-01-25T12:10:04;96914.25;;;23.32;33.50
82555;BME280;72219;48.186;11.554;2024-01-25T12:12:37;96916.34;;;23.37;33.66
82555;BME280;72219;48.186;11.554;2024-01-25T12:15:06;96918.88;;;23.23;33.88
82555;BME280;72219;48.186;11.554;2024-01-25T12:17:33;96907.53;;;23.29;33.95
82555;BME280;72219;48.186;11.554;2024-01-25T12:20:05;96905.31;;;23.33;34.20
82555;BME280;72219;48.186;11.554;2024-01-25T12:22:36;96902.50;;;23.34;33.84
82555;BME280;72219;48.186;11.554;2024-01-25T12:25:06;96893.75;;;23.34;33.97
82555;BME280;72219;48.186;11.554;2024-01-25T12:27:35;96849.22;;;23.02;34.34
82555;BME280;72219;48.186;11.554;2024-01-25T12:30:04;96865.28;;;23.08;34.52
82555;BME280;72219;48.186;11.554;2024-01-25T12:32:39;96817.91;;;22.78;34.40
82555;BME280;72219;48.186;11.554;2024-01-25T12:35:05;96906.78;;;23.35;34.63
82555;BME280;72219;48.186;11.554;2024-01-25T12:37:33;96818.38;;;22.81;34.68
82555;BME280;72219;48.186;11.554;2024-01-25T12:40:02;96900.44;;;23.58;34.33
82555;BME280;72219;48.186;11.554;2024-01-25T12:42:28;96850.81;;;23.25;34.30
82555;BME280;72219;48.186;11.554;2024-01-25T12:44:53;96834.22;;;23.10;34.58